Time;durP1;ratioP1;P1;durP2;ratioP2;P2;SDS_P1;SDS_P2;PMS_P1;PMS_P2;Temp;Humidity;BMP_temperature;BMP_pressure;BME280_temperature;BME280_humidity;BME280_pressure;Samples;Min_cycle;Max_cycle;Signal;HPM_P1;HPM_P2
2023/10/03 00:01:28;;;;;;;37.65;22.63;;;18.50;99.90;;;;;;5113719;28;20419;-47
2023/10/03 00:03:59;;;;;;;34.13;21.08;;;18.50;99.90;;;;;;5113798;28;20123;-47
2023/10/03 00:06:28;;;;;;;36.88;21.58;;;18.50;99.90;;;;;;5113054;28;20038;-49
2023/10/03 00:08:58;;;;;;;43.75;22.20;;;18.60;99.90;;;;;;5093886;28;20036;-49
2023/10/03 00:11:26;;;;;;;38.85;22.33;;;18.50;99.90;;;;;;5113170;28;20505;-47
2023/10/03 00:13:54;;;;;;;;;;;18.50;99.90;;;;;;5104190;28;20051;-49
2023/10/03 00:16:22;;;;;;;39.85;22.23;;;18.50;99.90;;;;;;5092570;28;19920;-48
2023/10/03 00:18:52;;;;;;;37.97;21.83;;;18.50;99.90;;;;;;5092289;28;20044;-49
2023/10/03 00:21:22;;;;;;;43.15;23.25;;;18.50;99.90;;;;;;5092858;28;20072;-49
2023/10/03 00:23:52;;;;;;;41.60;23.02;;;18.50;99.90;;;;;;5092726;28;20032;-50
2023/10/03 00:26:22;;;;;;;40.58;24.17;;;18.50;99.90;;;;;;5092574;28;20439;-50
2023/10/03 00:28:51;;;;;;;40.13;23.05;;;18.50;99.90;;;;;;5092077;28;20040;-48
2023/10/03 00:31:20;;;;;;;40.50;22.50;;;18.40;99.90;;;;;;5091688;28;20047;-49
2023/10/03 00:33:47;;;;;;;37.42;22.85;;;18.50;99.90;;;;;;5092557;28;20036;-48
2023/10/03 00:36:18;;;;;;;41.30;23.08;;;18.40;99.90;;;;;;5091874;28;20062;-46
2023/10/03 00:38:50;;;;;;;40.60;23.17;;;18.40;99.90;;;;;;5092510;28;20555;-49
2023/10/03 00:41:26;;;;;;;43.72;23.73;;;18.50;99.90;;;;;;5092068;28;20482;-51
2023/10/03 00:43:59;;;;;;;38.17;22.92;;;18.40;99.90;;;;;;5092529;28;20101;-49
2023/10/03 00:46:29;;;;;;;40.90;24.23;;;18.40;99.90;;;;;;5092088;28;20372;-48
2023/10/03 00:49:04;;;;;;;39.83;22.42;;;18.40;99.90;;;;;;5092406;28;20505;-51
2023/10/03 00:51:35;;;;;;;40.28;23.35;;;18.30;99.90;;;;;;5092166;28;20036;-48
2023/10/03 00:54:04;;;;;;;38.70;21.92;;;18.30;99.90;;;;;;5092114;28;20123;-50
2023/10/03 00:56:33;;;;;;;40.10;23.52;;;18.30;99.90;;;;;;5074397;28;20048;-50
2023/10/03 00:59:03;;;;;;;42.38;23.20;;;18.20;99.90;;;;;;5092001;28;20120;-50
2023/10/03 01:01:35;;;;;;;39.95;23.60;;;18.20;99.90;;;;;;5091454;28;20041;-48
2023/10/03 01:04:05;;;;;;;42.67;23.40;;;18.20;99.90;;;;;;5091836;28;20485;-50
2023/10/03 01:06:38;;;;;;;38.70;22.08;;;18.10;99.90;;;;;;5091843;28;20477;-49
2023/10/03 01:09:15;;;;;;;39.38;21.52;;;18.10;99.90;;;;;;5090835;28;20118;-47
2023/10/03 01:11:44;;;;;;;43.70;22.92;;;18.10;99.90;;;;;;5092178;28;20040;-47
2023/10/03 01:14:15;;;;;;;38.22;22.20;;;18.10;99.90;;;;;;5091636;28;20113;-49
2023/10/03 01:16:44;;;;;;;39.67;22.08;;;18.10;99.90;;;;;;5092283;28;20055;-47
2023/10/03 01:19:25;;;;;;;36.75;22.08;;;18.10;99.90;;;;;;5091274;28;20042;-50
2023/10/03 01:21:52;;;;;;;37.55;20.48;;;18.10;99.90;;;;;;5073535;28;20484;-45
2023/10/03 01:24:20;;;;;;;39.47;21.65;;;18.10;99.90;;;;;;5091655;28;20561;-46
2023/10/03 01:26:49;;;;;;;39.15;21.75;;;18.10;99.90;;;;;;5091187;28;20119;-51
2023/10/03 01:29:17;;;;;;;41.95;22.17;;;18.10;99.90;;;;;;5091832;28;20036;-49
2023/10/03 01:31:47;;;;;;;38.50;21.95;;;18.10;99.90;;;;;;5090309;28;20047;-48
2023/10/03 01:34:16;;;;;;;37.65;21.17;;;18.00;99.90;;;;;;5091512;28;20048;-46
2023/10/03 01:36:48;;;;;;;40.50;21.65;;;18.00;99.90;;;;;;5091484;28;20040;-49
2023/10/03 01:39:16;;;;;;;41.72;22.02;;;18.00;99.90;;;;;;5091707;28;20044;-47
2023/10/03 01:41:44;;;;;;;39.20;21.20;;;18.00;99.90;;;;;;5091459;28;20071;-47
2023/10/03 01:44:14;;;;;;;36.22;21.05;;;18.00;99.90;;;;;;5089696;28;20047;-47
2023/10/03 01:46:41;;;;;;;36.03;20.65;;;18.00;99.90;;;;;;5091621;28;20475;-47
2023/10/03 01:49:10;;;;;;;44.50;20.42;;;18.00;99.90;;;;;;5090622;28;20044;-47
2023/10/03 01:51:39;;;;;;;39.13;21.45;;;18.00;99.90;;;;;;5091350;28;20048;-48
2023/10/03 01:54:08;;;;;;;34.28;20.45;;;18.10;99.90;;;;;;5091357;28;20040;-48
2023/10/03 01:56:38;;;;;;;38.03;20.80;;;18.00;99.90;;;;;;5091452;28;20055;-47
2023/10/03 01:59:08;;;;;;;38.88;20.70;;;18.10;99.90;;;;;;5091173;28;20537;-47
2023/10/03 02:01:38;;;;;;;42.75;20.42;;;18.00;99.90;;;;;;5091044;28;20036;-49
2023/10/03 02:04:06;;;;;;;40.35;21.13;;;18.00;99.90;;;;;;5091065;28;20039;-47
2023/10/03 02:06:39;;;;;;;41.70;21.27;;;18.00;99.90;;;;;;5091221;28;20051;-47
2023/10/03 02:09:08;;;;;;;37.85;20.15;;;18.20;99.90;;;;;;5091243;28;20341;-46
2023/10/03 02:11:38;;;;;;;35.90;19.52;;;18.00;99.90;;;;;;5091152;28;20044;-50
2023/10/03 02:14:07;;;;;;;38.08;20.73;;;18.00;99.90;;;;;;5090613;28;20055;-49
2023/10/03 02:16:40;;;;;;;;;;;18.00;99.90;;;;;;5091717;28;20047;-49
2023/10/03 02:19:11;;;;;;;36.38;19.27;;;18.00;99.90;;;;;;5091114;28;19916;-48
2023/10/03 02:21:42;;;;;;;45.17;19.92;;;18.00;99.90;;;;;;5091003;28;20051;-47
2023/10/03 02:24:12;;;;;;;38.22;20.67;;;18.00;99.90;;;;;;5091418;28;20036;-47
2023/10/03 02:26:45;;;;;;;37.53;18.83;;;18.10;99.90;;;;;;5090886;28;20113;-52
2023/10/03 02:29:15;;;;;;;33.97;18.48;;;18.00;99.90;;;;;;5090379;28;20044;-48
2023/10/03 02:31:44;;;;;;;35.60;18.83;;;18.10;99.90;;;;;;5090756;28;20040;-47
2023/10/03 02:34:14;;;;;;;36.70;19.38;;;18.10;99.90;;;;;;5090971;28;20032;-48
2023/10/03 02:36:44;;;;;;;33.03;18.60;;;18.00;99.90;;;;;;5072268;28;20383;-47
2023/10/03 02:39:14;;;;;;;39.85;20.90;;;18.00;99.90;;;;;;5091190;28;20044;-49
2023/10/03 02:41:42;;;;;;;41.67;19.00;;;18.00;99.90;;;;;;5090658;28;20043;-49
2023/10/03 02:44:13;;;;;;;38.80;19.05;;;18.00;99.90;;;;;;5094635;28;20530;-48
2023/10/03 02:46:41;;;;;;;35.70;19.50;;;18.00;99.90;;;;;;5094520;28;20032;-53
2023/10/03 02:49:12;;;;;;;36.10;18.83;;;18.00;99.90;;;;;;5094510;28;20498;-48
2023/10/03 02:51:42;;;;;;;36.95;20.00;;;18.10;99.90;;;;;;5094488;28;20061;-51
2023/10/03 02:54:14;;;;;;;35.80;18.00;;;18.10;99.90;;;;;;5094525;28;20521;-50
2023/10/03 02:56:42;;;;;;;35.65;18.83;;;18.00;99.90;;;;;;5093792;28;20421;-46
2023/10/03 02:59:12;;;;;;;34.30;18.40;;;18.10;99.90;;;;;;5094773;28;20055;-46
2023/10/03 03:01:44;;;;;;;36.92;18.15;;;18.10;99.90;;;;;;5094125;28;20044;-46
2023/10/03 03:04:12;;;;;;;37.67;18.02;;;18.10;99.90;;;;;;5094198;28;20051;-51
2023/10/03 03:06:46;;;;;;;34.42;18.38;;;18.10;99.90;;;;;;5094263;28;20039;-49
2023/10/03 03:09:18;;;;;;;38.92;18.83;;;18.10;99.90;;;;;;5094443;28;20047;-47
2023/10/03 03:11:48;;;;;;;37.00;18.33;;;18.10;99.90;;;;;;5093798;28;20489;-49
2023/10/03 03:14:19;;;;;;;40.38;18.98;;;18.10;99.90;;;;;;5094025;28;20048;-47
2023/10/03 03:16:49;;;;;;;33.70;18.35;;;18.20;99.90;;;;;;5076128;28;20067;-50
2023/10/03 03:19:18;;;;;;;35.97;18.90;;;18.10;99.90;;;;;;5094032;28;20086;-50
2023/10/03 03:21:44;;;;;;;35.35;18.52;;;18.10;99.90;;;;;;5093765;28;20115;-47
2023/10/03 03:24:18;;;;;;;35.78;18.73;;;18.10;99.90;;;;;;5093414;28;20123;-51
2023/10/03 03:26:52;;;;;;;37.47;19.25;;;18.10;99.90;;;;;;5093746;28;20036;-49
2023/10/03 03:29:22;;;;;;;32.15;17.73;;;18.10;99.90;;;;;;5093270;28;20435;-48
2023/10/03 03:31:52;;;;;;;35.03;18.20;;;18.10;99.90;;;;;;5093594;28;20044;-48
2023/10/03 03:34:22;;;;;;;37.58;19.58;;;18.10;99.90;;;;;;5093592;28;20040;-48
2023/10/03 03:36:55;;;;;;;36.35;17.67;;;18.10;99.90;;;;;;5093632;28;20123;-49
2023/10/03 03:39:23;;;;;;;34.97;17.40;;;18.10;99.90;;;;;;5093622;28;20101;-48
2023/10/03 03:41:54;;;;;;;35.00;17.80;;;18.10;99.90;;;;;;5092640;28;20073;-48
2023/10/03 03:44:25;;;;;;;35.70;17.95;;;18.10;99.90;;;;;;5093161;28;20024;-46
2023/10/03 03:46:54;;;;;;;31.40;16.83;;;18.10;99.90;;;;;;5093524;28;20032;-49
2023/10/03 03:49:25;;;;;;;35.75;17.95;;;18.10;99.90;;;;;;5093440;28;20072;-49
2023/10/03 03:51:53;;;;;;;34.95;17.45;;;18.10;99.90;;;;;;5093298;28;20051;-51
2023/10/03 03:54:23;;;;;;;34.83;17.70;;;18.10;99.90;;;;;;5091655;28;20036;-47
2023/10/03 03:56:53;;;;;;;30.73;16.98;;;18.10;99.90;;;;;;5092866;28;20044;-49
2023/10/03 03:59:22;;;;;;;35.65;16.33;;;18.10;99.90;;;;;;5091642;28;20109;-46
2023/10/03 04:01:54;;;;;;;33.38;15.60;;;18.20;99.90;;;;;;5092784;28;20525;-47
2023/10/03 04:04:22;;;;;;;35.47;17.17;;;18.20;99.90;;;;;;5093245;28;20075;-50
2023/10/03 04:06:52;;;;;;;28.95;15.60;;;18.20;99.90;;;;;;5092224;28;20044;-47
2023/10/03 04:09:19;;;;;;;31.35;15.73;;;18.30;99.90;;;;;;5092166;28;20040;-47
2023/10/03 04:11:47;;;;;;;29.75;16.52;;;18.30;99.90;;;;;;5092781;28;20040;-48
2023/10/03 04:14:15;;;;;;;31.55;16.45;;;18.30;99.90;;;;;;5092536;28;20048;-48
2023/10/03 04:16:44;;;;;;;33.20;16.25;;;18.40;99.90;;;;;;5092036;28;20062;-48
2023/10/03 04:19:12;;;;;;;28.50;15.23;;;18.40;99.90;;;;;;5074679;28;20052;-49
2023/10/03 04:21:40;;;;;;;31.80;16.08;;;18.40;99.90;;;;;;5092793;28;20478;-47
2023/10/03 04:24:11;;;;;;;32.65;16.60;;;18.50;99.90;;;;;;5092674;28;20036;-48
2023/10/03 04:26:41;;;;;;;26.83;14.70;;;18.40;99.90;;;;;;5092737;28;20036;-48
2023/10/03 04:29:13;;;;;;;32.35;16.60;;;18.40;99.90;;;;;;5091971;28;20048;-52
2023/10/03 04:31:42;;;;;;;35.00;17.58;;;18.40;99.90;;;;;;5092708;28;20458;-46
2023/10/03 04:34:11;;;;;;;37.45;16.52;;;18.40;99.90;;;;;;5092794;28;20135;-47
2023/10/03 04:36:41;;;;;;;34.58;17.23;;;18.40;99.90;;;;;;5092288;28;20047;-46
2023/10/03 04:39:11;;;;;;;30.25;15.38;;;18.40;99.90;;;;;;5092035;28;20043;-48
2023/10/03 04:41:43;;;;;;;37.70;16.83;;;18.40;99.90;;;;;;5092423;28;20044;-46
2023/10/03 04:44:16;;;;;;;32.38;15.75;;;18.40;99.90;;;;;;5092629;28;20036;-48
2023/10/03 04:46:45;;;;;;;30.63;15.63;;;18.50;99.90;;;;;;5092008;28;20486;-48
2023/10/03 04:49:12;;;;;;;28.45;15.60;;;18.50;99.90;;;;;;5092409;28;20035;-48
2023/10/03 04:51:43;;;;;;;29.27;16.02;;;18.60;99.90;;;;;;5091817;28;20040;-47
2023/10/03 04:54:11;;;;;;;35.33;15.95;;;18.60;99.90;;;;;;5092384;28;20443;-50
2023/10/03 04:56:39;;;;;;;36.87;16.27;;;18.60;99.90;;;;;;5092096;28;20047;-49
2023/10/03 04:59:10;;;;;;;28.48;15.77;;;18.60;99.90;;;;;;5074519;28;20040;-48
2023/10/03 05:01:40;;;;;;;34.05;16.83;;;18.70;99.90;;;;;;5091907;28;20115;-49
2023/10/03 05:04:12;;;;;;;39.13;17.33;;;18.70;99.90;;;;;;5091965;28;20043;-49
2023/10/03 05:06:42;;;;;;;31.95;16.45;;;18.80;99.90;;;;;;5092339;28;20032;-49
2023/10/03 05:09:10;;;;;;;25.42;13.85;;;18.80;99.90;;;;;;5091767;28;20092;-49
2023/10/03 05:11:38;;;;;;;34.37;16.30;;;18.80;99.90;;;;;;5091154;28;20079;-49
2023/10/03 05:14:06;;;;;;;31.48;15.07;;;18.80;99.90;;;;;;5091710;28;20301;-49
2023/10/03 05:16:34;;;;;;;29.48;15.45;;;18.90;99.90;;;;;;5091207;28;20052;-50
2023/10/03 05:19:01;;;;;;;31.52;13.98;;;18.80;99.90;;;;;;5090491;28;20401;-47
2023/10/03 05:21:29;;;;;;;31.30;14.73;;;18.90;99.90;;;;;;5091617;28;20481;-47
2023/10/03 05:23:57;;;;;;;27.40;14.38;;;19.00;99.90;;;;;;5091242;28;20036;-50
2023/10/03 05:26:26;;;;;;;29.20;14.63;;;19.00;99.90;;;;;;5091405;28;20515;-47
2023/10/03 05:28:55;;;;;;;;;;;19.00;99.90;;;;;;5092021;28;20031;-53
2023/10/03 05:31:23;;;;;;;29.65;13.98;;;19.00;99.90;;;;;;5091786;28;20028;-51
2023/10/03 05:33:53;;;;;;;34.00;15.02;;;19.00;99.90;;;;;;5090718;28;20048;-48
2023/10/03 05:36:21;;;;;;;38.35;15.77;;;19.10;99.90;;;;;;5091701;28;20558;-49
2023/10/03 05:38:51;;;;;;;30.60;14.32;;;19.00;99.90;;;;;;5089898;28;20044;-47
2023/10/03 05:41:21;;;;;;;32.85;16.40;;;19.10;99.90;;;;;;5090724;28;20068;-48
2023/10/03 05:43:49;;;;;;;35.63;15.98;;;19.20;99.90;;;;;;5091659;28;20450;-49
2023/10/03 05:46:17;;;;;;;34.42;15.88;;;19.20;99.90;;;;;;5091451;28;20032;-47
2023/10/03 05:48:46;;;;;;;;;;;19.20;99.90;;;;;;5091482;28;20036;-48
2023/10/03 05:51:14;;;;;;;40.03;16.33;;;19.20;99.90;;;;;;5091126;28;19919;-45
2023/10/03 05:53:41;;;;;;;32.88;15.93;;;19.20;99.90;;;;;;5091091;28;20040;-48
2023/10/03 05:56:12;;;;;;;35.35;16.30;;;19.20;99.90;;;;;;5091275;28;20051;-47
2023/10/03 05:58:40;;;;;;;37.63;16.83;;;19.20;99.90;;;;;;5091092;28;20432;-49
2023/10/03 06:01:07;;;;;;;33.20;15.85;;;19.20;99.90;;;;;;5090387;28;20044;-47
2023/10/03 06:03:36;;;;;;;36.08;17.10;;;19.20;99.90;;;;;;5091200;28;20032;-46
2023/10/03 06:06:03;;;;;;;;;;;19.20;99.90;;;;;;5092064;28;20044;-52
2023/10/03 06:08:32;;;;;;;41.67;17.00;;;19.30;99.90;;;;;;5091724;28;20372;-48
2023/10/03 06:11:03;;;;;;;39.40;15.85;;;19.30;99.90;;;;;;5091219;28;20036;-48
2023/10/03 06:13:30;;;;;;;33.55;16.58;;;19.30;99.90;;;;;;5090874;28;20059;-51
2023/10/03 06:15:59;;;;;;;39.53;16.52;;;19.30;99.90;;;;;;5090947;28;20486;-48
2023/10/03 06:18:28;;;;;;;33.80;15.57;;;19.30;99.90;;;;;;5094601;28;20386;-47
2023/10/03 06:20:57;;;;;;;35.58;15.40;;;19.40;99.90;;;;;;5095174;28;20462;-49
2023/10/03 06:23:24;;;;;;;34.25;15.38;;;19.40;99.90;;;;;;5095380;28;20482;-48
2023/10/03 06:25:51;;;;;;;40.67;13.80;;;19.40;99.90;;;;;;5093765;28;20046;-48
2023/10/03 06:28:21;;;;;;;38.17;15.53;;;19.40;99.90;;;;;;5094610;28;20042;-47
2023/10/03 06:30:51;;;;;;;31.00;15.90;;;19.40;99.90;;;;;;5076356;28;20763;-48
2023/10/03 06:33:18;;;;;;;33.53;14.15;;;19.40;99.90;;;;;;5095188;28;20097;-46
2023/10/03 06:35:45;;;;;;;36.05;15.88;;;19.30;99.90;;;;;;5094239;28;20433;-50
2023/10/03 06:38:11;;;;;;;36.83;14.73;;;19.30;99.90;;;;;;5095017;28;20115;-46
2023/10/03 06:40:40;;;;;;;29.23;14.20;;;19.20;99.90;;;;;;5094626;28;20478;-47
2023/10/03 06:43:07;;;;;;;;;;;19.20;99.90;;;;;;5095242;28;20036;-47
2023/10/03 06:45:35;;;;;;;30.92;12.90;;;19.10;99.90;;;;;;5094543;28;19971;-47
2023/10/03 06:48:03;;;;;;;31.80;13.18;;;19.10;99.90;;;;;;5080970;28;20028;-49
2023/10/03 06:50:34;;;;;;;33.70;12.48;;;19.10;99.90;;;;;;5094970;28;20545;-48
2023/10/03 06:53:01;;;;;;;25.13;11.48;;;19.00;99.90;;;;;;5075790;28;20044;-47
2023/10/03 06:55:28;;;;;;;33.80;12.07;;;19.00;99.90;;;;;;5094411;28;20097;-48
2023/10/03 06:57:57;;;;;;;23.60;10.40;;;19.00;99.90;;;;;;5094078;28;20075;-46
2023/10/03 07:00:25;;;;;;;19.65;9.13;;;18.90;99.90;;;;;;5094701;28;20044;-47
2023/10/03 07:02:52;;;;;;;24.30;9.77;;;18.90;99.90;;;;;;5094166;28;20042;-47
2023/10/03 07:05:18;;;;;;;23.10;9.90;;;18.80;99.90;;;;;;5094365;28;20036;-50
2023/10/03 07:07:45;;;;;;;25.58;10.07;;;18.70;99.90;;;;;;5094087;28;20032;-47
2023/10/03 07:10:12;;;;;;;24.95;9.68;;;18.70;99.90;;;;;;5094181;28;20070;-46
2023/10/03 07:12:38;;;;;;;30.35;10.60;;;18.60;99.90;;;;;;5075426;28;20079;-51
2023/10/03 07:15:08;;;;;;;21.15;8.88;;;18.50;99.90;;;;;;5093245;28;20044;-49
2023/10/03 07:17:35;;;;;;;23.25;9.10;;;18.50;99.90;;;;;;5114377;28;20039;-51
2023/10/03 07:20:04;;;;;;;18.35;8.18;;;18.50;99.90;;;;;;5114239;28;20485;-46
2023/10/03 07:22:32;;;;;;;24.52;8.82;;;18.40;99.90;;;;;;5114308;28;20071;-48
2023/10/03 07:24:58;;;;;;;20.70;8.57;;;18.50;99.90;;;;;;5114430;28;20035;-48
2023/10/03 07:27:24;;;;;;;25.75;9.90;;;18.40;99.90;;;;;;5114192;28;20480;-48
2023/10/03 07:29:52;;;;;;;22.83;9.32;;;18.40;99.90;;;;;;5114348;28;20047;-47
2023/10/03 07:32:18;;;;;;;27.48;10.13;;;18.30;99.90;;;;;;5114135;28;20042;-46
2023/10/03 07:34:46;;;;;;;25.75;8.63;;;18.30;99.90;;;;;;5095428;28;20101;-47
2023/10/03 07:37:14;;;;;;;26.52;9.52;;;18.30;99.90;;;;;;5100166;28;20036;-48
2023/10/03 07:39:40;;;;;;;22.83;8.05;;;18.20;99.90;;;;;;5114094;28;20115;-50
2023/10/03 07:42:07;;;;;;;25.20;8.38;;;18.20;99.90;;;;;;5114064;28;20031;-48
2023/10/03 07:44:33;;;;;;;21.83;7.25;;;18.20;99.90;;;;;;5113913;28;20035;-46
2023/10/03 07:47:03;;;;;;;25.08;7.38;;;18.10;99.90;;;;;;5114056;28;20401;-46
2023/10/03 07:49:31;;;;;;;26.08;7.97;;;18.00;99.90;;;;;;5113946;28;20481;-49
2023/10/03 07:52:04;;;;;;;29.13;8.13;;;18.00;99.90;;;;;;5113584;28;20043;-50
2023/10/03 07:54:33;;;;;;;18.85;6.70;;;18.00;99.90;;;;;;5113774;28;20035;-47
2023/10/03 07:57:05;;;;;;;21.63;6.45;;;17.90;99.90;;;;;;5113947;28;20074;-47
2023/10/03 07:59:33;;;;;;;19.25;6.40;;;17.90;99.90;;;;;;5113459;28;20393;-48
2023/10/03 08:02:05;;;;;;;22.63;4.57;;;17.80;99.90;;;;;;5113431;28;20036;-49
2023/10/03 08:04:33;;;;;;;16.15;5.05;;;17.80;99.90;;;;;;5113415;28;20104;-48
2023/10/03 08:06:59;;;;;;;16.25;4.50;;;17.70;99.90;;;;;;5113619;28;20024;-47
2023/10/03 08:09:26;;;;;;;17.20;5.00;;;17.70;99.90;;;;;;5112641;28;20100;-48
2023/10/03 08:11:55;;;;;;;12.90;3.47;;;17.60;99.90;;;;;;5113356;28;20051;-48
2023/10/03 08:14:23;;;;;;;8.95;3.10;;;17.60;99.90;;;;;;5095154;28;20085;-47
2023/10/03 08:16:49;;;;;;;12.90;3.63;;;17.60;99.90;;;;;;5112630;28;20044;-46
2023/10/03 08:19:27;;;;;;;19.42;4.05;;;17.50;99.90;;;;;;5113365;28;20028;-48
2023/10/03 08:21:55;;;;;;;14.73;2.67;;;17.50;99.90;;;;;;5113051;28;20048;-47
2023/10/03 08:24:28;;;;;;;14.95;2.53;;;17.40;99.90;;;;;;5113422;28;20036;-46
2023/10/03 08:26:58;;;;;;;14.25;2.53;;;17.30;99.90;;;;;;5112950;28;20481;-46
2023/10/03 08:29:25;;;;;;;13.50;3.60;;;17.30;99.90;;;;;;5112335;28;20039;-46
2023/10/03 08:31:59;;;;;;;14.18;2.42;;;17.30;99.90;;;;;;5112698;28;20052;-46
2023/10/03 08:34:29;;;;;;;14.50;2.63;;;17.30;99.90;;;;;;5113069;28;20423;-47
2023/10/03 08:37:01;;;;;;;7.25;2.10;;;17.30;99.90;;;;;;5112610;28;20047;-47
2023/10/03 08:39:32;;;;;;;10.93;2.08;;;17.30;99.90;;;;;;5112228;28;20038;-47
2023/10/03 08:42:13;;;;;;;9.98;1.77;;;17.20;99.90;;;;;;5094210;28;20048;-47
2023/10/03 08:44:52;;;;;;;10.43;2.00;;;17.30;99.90;;;;;;5113067;28;20036;-47
2023/10/03 08:47:28;;;;;;;11.55;2.20;;;17.20;99.90;;;;;;5112826;28;20088;-50
2023/10/03 08:50:14;;;;;;;10.85;1.95;;;17.20;99.90;;;;;;5112829;28;20499;-51
2023/10/03 08:52:47;;;;;;;14.23;1.83;;;17.20;99.90;;;;;;5112650;28;20040;-49
2023/10/03 08:55:20;;;;;;;8.48;1.40;;;17.20;99.90;;;;;;5112506;28;20497;-48
2023/10/03 08:57:47;;;;;;;8.25;1.50;;;17.20;99.90;;;;;;5112512;28;20040;-47
2023/10/03 09:00:18;;;;;;;7.82;1.40;;;17.10;99.90;;;;;;5112114;28;20051;-47
2023/10/03 09:02:59;;;;;;;5.10;1.23;;;17.00;99.90;;;;;;5111440;28;20079;-49
2023/10/03 09:05:25;;;;;;;6.85;1.30;;;16.80;99.90;;;;;;5112343;28;20377;-47
2023/10/03 09:07:58;;;;;;;6.50;1.05;;;16.70;99.90;;;;;;5112545;28;20073;-47
2023/10/03 09:10:29;;;;;;;9.27;1.48;;;16.60;99.90;;;;;;5111510;28;20058;-48
2023/10/03 09:13:05;;;;;;;7.55;1.38;;;16.50;99.90;;;;;;5093771;28;20039;-47
2023/10/03 09:15:38;;;;;;;5.72;1.25;;;16.50;99.90;;;;;;5095302;28;20052;-47
2023/10/03 09:18:10;;;;;;;5.13;0.82;;;16.50;99.90;;;;;;5091664;28;20093;-48
2023/10/03 09:20:42;;;;;;;12.73;1.55;;;16.40;99.90;;;;;;5072555;28;20059;-48
2023/10/03 11:20:16;;;;;;;10.18;2.70;;;15.60;99.90;;;;;;5107647;28;20120;-50
2023/10/03 11:22:44;;;;;;;6.18;2.80;;;15.60;99.90;;;;;;5114594;28;20114;-48
2023/10/03 11:25:11;;;;;;;10.93;3.28;;;15.60;99.90;;;;;;5114528;28;20096;-48
2023/10/03 11:27:37;;;;;;;9.95;3.50;;;15.60;99.90;;;;;;5114349;28;20040;-50
2023/10/03 11:30:16;;;;;;;11.77;3.50;;;15.70;99.90;;;;;;5096026;28;20541;-49
2023/10/03 11:32:43;;;;;;;6.82;2.63;;;15.70;99.90;;;;;;5114182;28;20036;-51
2023/10/03 11:35:20;;;;;;;9.80;2.65;;;15.70;99.90;;;;;;5114110;28;20069;-48
2023/10/03 11:37:48;;;;;;;15.32;3.05;;;15.80;99.90;;;;;;5114301;28;20039;-50
2023/10/03 11:40:21;;;;;;;13.90;2.53;;;15.80;99.90;;;;;;5114039;28;20027;-48
2023/10/03 11:42:51;;;;;;;11.52;3.65;;;15.90;99.90;;;;;;5113918;28;20370;-52
2023/10/03 11:45:24;;;;;;;9.70;2.63;;;15.90;99.90;;;;;;5114014;28;20480;-52
2023/10/03 11:47:58;;;;;;;10.02;3.10;;;15.90;99.90;;;;;;5113948;28;20034;-48
2023/10/03 11:50:25;;;;;;;6.43;2.92;;;15.90;99.90;;;;;;5114024;28;20434;-51
2023/10/03 11:52:51;;;;;;;9.40;2.25;;;15.90;99.90;;;;;;5113931;28;20032;-48
2023/10/03 11:55:19;;;;;;;8.95;2.72;;;16.00;99.90;;;;;;5099785;28;20039;-48
2023/10/03 11:57:45;;;;;;;9.55;2.47;;;15.90;99.90;;;;;;5113740;28;20071;-49
2023/10/03 12:00:14;;;;;;;8.68;2.55;;;15.90;99.90;;;;;;5113826;28;20043;-51
2023/10/03 12:02:47;;;;;;;8.88;2.95;;;15.90;99.90;;;;;;5114151;28;20152;-49
2023/10/03 12:05:14;;;;;;;10.02;2.72;;;15.90;99.90;;;;;;5113535;28;20139;-48
2023/10/03 12:07:45;;;;;;;9.05;2.72;;;15.90;99.90;;;;;;5095438;28;20036;-47
2023/10/03 12:10:12;;;;;;;10.68;2.92;;;15.90;99.90;;;;;;5113423;28;20386;-51
2023/10/03 12:12:38;;;;;;;12.07;3.22;;;15.90;99.90;;;;;;5113831;28;20043;-49
2023/10/03 12:15:20;;;;;;;12.20;2.88;;;15.80;99.90;;;;;;5112654;28;20034;-50
2023/10/03 12:17:47;;;;;;;7.85;2.42;;;15.80;99.90;;;;;;5113547;28;20078;-52
2023/10/03 12:20:16;;;;;;;8.98;2.65;;;15.70;99.90;;;;;;5106557;28;20064;-47
2023/10/03 12:22:43;;;;;;;10.02;2.95;;;15.50;99.90;;;;;;5092787;28;20083;-52
2023/10/03 12:25:10;;;;;;;12.13;2.58;;;15.50;99.90;;;;;;5093165;28;20055;-48
2023/10/03 12:27:43;;;;;;;10.23;2.75;;;15.50;99.90;;;;;;5093072;28;20060;-48
2023/10/03 12:30:11;;;;;;;7.40;2.65;;;15.50;99.90;;;;;;5092624;28;20036;-47
2023/10/03 12:32:42;;;;;;;5.77;2.20;;;15.50;99.90;;;;;;5092683;28;20028;-51
2023/10/03 12:35:09;;;;;;;12.52;2.35;;;15.60;99.90;;;;;;5092706;28;20120;-47
2023/10/03 12:37:37;;;;;;;8.10;2.70;;;15.60;99.90;;;;;;5092750;28;20039;-49
2023/10/03 12:40:04;;;;;;;9.05;2.63;;;15.60;99.90;;;;;;5092634;28;20102;-47
2023/10/03 12:42:31;;;;;;;8.13;2.83;;;15.60;99.90;;;;;;5092615;28;20124;-48
2023/10/03 12:45:00;;;;;;;11.35;2.50;;;15.60;99.90;;;;;;5092497;28;20118;-48
2023/10/03 12:47:30;;;;;;;6.70;2.28;;;15.60;99.90;;;;;;5092451;28;20035;-47
2023/10/03 12:49:59;;;;;;;8.90;2.72;;;15.70;99.90;;;;;;5092649;28;20044;-49
2023/10/03 12:52:28;;;;;;;6.85;1.92;;;15.70;99.90;;;;;;5092318;28;20485;-49
2023/10/03 12:54:59;;;;;;;9.43;2.22;;;15.80;99.90;;;;;;5092197;28;20061;-47
2023/10/03 12:57:24;;;;;;;8.18;2.58;;;15.70;99.90;;;;;;5092369;28;20036;-47
2023/10/03 12:59:52;;;;;;;6.32;2.72;;;15.80;99.90;;;;;;5092154;28;20401;-47
2023/10/03 13:02:19;;;;;;;7.13;1.90;;;15.80;99.90;;;;;;5092215;28;20036;-48
2023/10/03 13:04:46;;;;;;;8.48;2.55;;;15.80;99.90;;;;;;5092219;28;20055;-47
2023/10/03 13:07:12;;;;;;;8.88;2.10;;;15.80;99.90;;;;;;5078380;28;20145;-45
2023/10/03 13:09:39;;;;;;;9.55;2.45;;;15.80;99.90;;;;;;5092195;28;20039;-46
2023/10/03 13:12:06;;;;;;;12.90;2.72;;;15.90;99.90;;;;;;5092012;28;20106;-47
2023/10/03 13:14:32;;;;;;;8.23;2.20;;;16.00;99.90;;;;;;5092034;28;20393;-47
2023/10/03 13:17:01;;;;;;;11.20;3.00;;;16.10;99.90;;;;;;5091899;28;20467;-50
2023/10/03 13:19:30;;;;;;;9.10;2.50;;;16.20;99.90;;;;;;5092043;28;20097;-49
2023/10/03 13:22:02;;;;;;;8.57;2.40;;;16.50;99.90;;;;;;5091587;28;20044;-47
2023/10/03 13:24:29;;;;;;;10.98;2.45;;;16.50;99.90;;;;;;5092026;28;20039;-47
2023/10/03 13:26:55;;;;;;;11.40;2.58;;;16.60;99.90;;;;;;5091607;28;20040;-47
2023/10/03 13:29:24;;;;;;;9.75;2.28;;;16.60;99.90;;;;;;5091872;28;20116;-47
2023/10/03 13:31:51;;;;;;;7.22;2.05;;;16.60;99.90;;;;;;5091863;28;20036;-49
2023/10/03 13:34:17;;;;;;;11.63;2.67;;;16.60;99.90;;;;;;5091467;28;20093;-50
2023/10/03 13:36:43;;;;;;;12.27;2.67;;;16.60;99.90;;;;;;5091901;28;20048;-49
2023/10/03 13:39:12;;;;;;;17.33;2.33;;;16.70;99.90;;;;;;5091568;28;20043;-51
2023/10/03 13:41:42;;;;;;;8.32;2.00;;;16.70;99.90;;;;;;5091763;28;20093;-46
2023/10/03 13:44:11;;;;;;;5.18;1.90;;;16.70;99.90;;;;;;5091617;28;20075;-48
2023/10/03 13:46:38;;;;;;;5.93;2.78;;;16.80;99.90;;;;;;5091700;28;20042;-47
2023/10/03 13:49:06;;;;;;;10.00;2.30;;;16.80;99.90;;;;;;5073605;28;20393;-50
2023/10/03 13:51:33;;;;;;;7.00;2.40;;;16.90;99.90;;;;;;5091775;28;20122;-51
2023/10/03 13:53:59;;;;;;;8.80;2.15;;;17.00;99.90;;;;;;5091705;28;20074;-53
2023/10/03 13:56:25;;;;;;;9.98;2.38;;;17.00;99.90;;;;;;5091283;28;20048;-50
2023/10/03 13:58:52;;;;;;;5.82;1.67;;;16.90;99.90;;;;;;5091790;28;20032;-51
2023/10/03 14:01:18;;;;;;;7.10;2.08;;;16.80;99.90;;;;;;5091465;28;20040;-49
2023/10/03 14:03:43;;;;;;;9.40;1.70;;;16.70;99.90;;;;;;5091551;28;20039;-50
2023/10/03 14:06:19;;;;;;;12.15;2.28;;;16.70;99.90;;;;;;5091696;28;20032;-49
2023/10/03 14:08:48;;;;;;;7.78;2.17;;;16.60;99.90;;;;;;5073440;28;20481;-49
2023/10/03 14:11:21;;;;;;;7.03;2.10;;;16.50;99.90;;;;;;5091392;28;20392;-51
2023/10/03 14:13:50;;;;;;;11.48;1.85;;;16.60;99.90;;;;;;5091220;28;20469;-47
2023/10/03 14:16:17;;;;;;;7.28;2.05;;;16.60;99.90;;;;;;5091167;28;20394;-51
2023/10/03 14:18:44;;;;;;;8.30;2.30;;;16.80;99.90;;;;;;5091247;28;20032;-46
2023/10/03 14:21:10;;;;;;;9.93;2.15;;;16.80;99.90;;;;;;5091000;28;20055;-48
2023/10/03 14:23:41;;;;;;;8.80;2.47;;;16.90;99.90;;;;;;5073180;28;20044;-51
2023/10/03 14:26:06;;;;;;;8.70;2.08;;;17.00;99.90;;;;;;5091189;28;20084;-50
2023/10/03 14:28:33;;;;;;;8.80;2.20;;;17.10;99.90;;;;;;5091089;28;20127;-47
2023/10/03 14:31:03;;;;;;;8.45;1.90;;;17.10;99.90;;;;;;5091217;28;20043;-47
2023/10/03 14:33:30;;;;;;;9.13;2.63;;;17.10;99.90;;;;;;5091531;28;20035;-49
2023/10/03 14:35:59;;;;;;;13.13;2.35;;;17.10;99.90;;;;;;5090929;28;20040;-53
2023/10/03 14:38:26;;;;;;;7.78;1.83;;;17.00;99.90;;;;;;5093340;28;20385;-48
2023/10/03 14:40:53;;;;;;;10.10;2.67;;;17.00;99.90;;;;;;5094939;28;20054;-50
2023/10/03 14:43:19;;;;;;;7.78;2.42;;;17.00;99.90;;;;;;5095000;28;20040;-49